Time;durP1;ratioP1;P1;durP2;ratioP2;P2;SDS_P1;SDS_P2;PMS_P1;PMS_P2;Temp;Humidity;BMP_temperature;BMP_pressure;BME280_temperature;BME280_humidity;BME280_pressure;Samples;Min_cycle;Max_cycle;Signal;HPM_P1;HPM_P2
2021/12/03 00:00:52;;;;;;;17.05;2.65;;;1.90;99.90;;;;;;5065156;28;20100;-68
2021/12/03 00:03:19;;;;;;;13.32;2.08;;;1.70;99.90;;;;;;5065816;28;20107;-68
2021/12/03 00:05:45;;;;;;;16.90;1.63;;;1.70;99.90;;;;;;5074865;28;20025;-68
2021/12/03 00:08:11;;;;;;;17.60;1.45;;;1.70;99.90;;;;;;5075778;28;20017;-68
2021/12/03 00:10:38;;;;;;;17.25;2.20;;;1.80;99.90;;;;;;5075181;28;20070;-68
2021/12/03 00:13:06;;;;;;;17.83;2.28;;;1.80;99.90;;;;;;5075018;28;20035;-68
2021/12/03 00:15:33;;;;;;;29.27;2.63;;;1.70;99.90;;;;;;5074971;28;20047;-68
2021/12/03 00:18:00;;;;;;;22.50;3.22;;;1.80;99.90;;;;;;5075311;28;20050;-68
2021/12/03 00:20:27;;;;;;;24.92;2.28;;;1.80;99.90;;;;;;5074494;28;20032;-68
2021/12/03 00:22:56;;;;;;;24.42;2.78;;;1.80;99.90;;;;;;5074849;28;20032;-68
2021/12/03 00:25:23;;;;;;;27.55;2.05;;;1.70;99.90;;;;;;5075207;28;20028;-68
2021/12/03 00:27:48;;;;;;;33.33;2.42;;;1.60;99.90;;;;;;5074341;28;20024;-69
2021/12/03 00:30:16;;;;;;;23.80;2.72;;;1.60;99.90;;;;;;5074782;28;20496;-68
2021/12/03 00:32:41;;;;;;;17.10;2.33;;;1.40;99.90;;;;;;5075040;28;20043;-68
2021/12/03 00:35:09;;;;;;;18.77;2.00;;;1.30;99.90;;;;;;5057099;28;20028;-68
2021/12/03 00:37:37;;;;;;;24.55;2.30;;;1.30;99.90;;;;;;5075194;28;20479;-68
2021/12/03 00:40:03;;;;;;;28.23;2.45;;;1.30;99.90;;;;;;5074319;28;20055;-68
2021/12/03 00:42:29;;;;;;;15.68;1.83;;;1.30;99.90;;;;;;5074626;28;20074;-68
2021/12/03 00:44:56;;;;;;;23.30;2.70;;;1.10;99.90;;;;;;5074601;28;20013;-68
2021/12/03 00:47:23;;;;;;;23.45;2.13;;;1.10;99.90;;;;;;5062779;28;20476;-68
2021/12/03 00:49:48;;;;;;;18.48;1.95;;;1.00;99.90;;;;;;5054726;28;20060;-68
2021/12/03 00:52:14;;;;;;;12.13;2.00;;;1.00;99.90;;;;;;5054088;28;20044;-68
2021/12/03 00:54:40;;;;;;;14.48;2.10;;;1.10;99.90;;;;;;5054785;28;20530;-68
2021/12/03 00:57:06;;;;;;;19.63;2.28;;;1.10;99.90;;;;;;5054450;28;20021;-68
2021/12/03 00:59:31;;;;;;;12.80;2.25;;;1.20;99.90;;;;;;5036241;28;20051;-68
2021/12/03 01:01:57;;;;;;;32.28;2.38;;;1.30;99.90;;;;;;5058938;28;20074;-69
2021/12/03 01:04:23;;;;;;;25.23;2.42;;;1.40;99.90;;;;;;5053760;28;20064;-68
2021/12/03 01:06:49;;;;;;;13.20;2.25;;;1.40;99.90;;;;;;5056727;28;20025;-68
2021/12/03 01:09:14;;;;;;;19.25;2.22;;;1.30;99.90;;;;;;5074131;28;20031;-68
2021/12/03 01:11:40;;;;;;;17.90;2.20;;;1.30;99.90;;;;;;5073961;28;20024;-68
2021/12/03 01:14:06;;;;;;;9.38;1.90;;;1.20;99.90;;;;;;5073497;28;20064;-69
2021/12/03 01:16:33;;;;;;;19.00;1.98;;;1.10;99.90;;;;;;5058848;28;20114;-68
2021/12/03 01:18:59;;;;;;;12.02;1.42;;;1.00;99.90;;;;;;5053996;28;20025;-68
2021/12/03 01:21:25;;;;;;;12.70;1.95;;;0.90;99.90;;;;;;5053636;28;20060;-68
2021/12/03 01:23:52;;;;;;;18.45;2.60;;;0.80;99.90;;;;;;5054186;28;20079;-68
2021/12/03 01:26:19;;;;;;;10.23;1.83;;;0.70;99.90;;;;;;5053635;28;20353;-68
2021/12/03 01:28:45;;;;;;;9.18;1.63;;;0.70;99.90;;;;;;5053799;28;20013;-68
2021/12/03 01:31:12;;;;;;;20.73;1.80;;;0.60;99.90;;;;;;5053071;28;20382;-68
2021/12/03 01:33:38;;;;;;;8.20;1.52;;;0.40;99.90;;;;;;5053747;28;20438;-68
2021/12/03 01:36:04;;;;;;;7.35;1.52;;;0.30;99.90;;;;;;5053944;28;20025;-68
2021/12/03 01:38:29;;;;;;;18.88;2.08;;;0.30;99.90;;;;;;5053055;28;20032;-68
2021/12/03 01:40:55;;;;;;;16.75;2.35;;;0.30;99.90;;;;;;5053679;28;20036;-68
2021/12/03 01:43:23;;;;;;;13.93;2.05;;;0.50;99.90;;;;;;5053856;28;20025;-68
2021/12/03 01:45:52;;;;;;;22.38;2.25;;;0.80;99.90;;;;;;5053729;28;20033;-68
2021/12/03 01:48:19;;;;;;;20.58;2.10;;;0.80;99.90;;;;;;5053125;28;20131;-69
2021/12/03 01:50:45;;;;;;;24.73;2.83;;;0.70;99.90;;;;;;5053534;28;20033;-68
2021/12/03 01:53:14;;;;;;;13.23;2.38;;;0.70;99.90;;;;;;5053376;28;20032;-69
2021/12/03 01:55:42;;;;;;;25.70;2.63;;;0.70;99.90;;;;;;5053381;28;20118;-68
2021/12/03 01:58:07;;;;;;;14.60;2.53;;;0.90;99.90;;;;;;5053279;28;20484;-68
2021/12/03 02:00:47;;;;;;;22.25;3.03;;;1.00;99.90;;;;;;5052804;28;20047;-68
2021/12/03 02:03:15;;;;;;;15.32;2.65;;;1.10;99.90;;;;;;5053469;28;20108;-68
2021/12/03 02:05:41;;;;;;;19.50;2.95;;;1.20;99.90;;;;;;5053291;28;20079;-68
2021/12/03 02:08:07;;;;;;;22.00;2.17;;;1.20;99.90;;;;;;5053672;28;20074;-68
2021/12/03 02:10:33;;;;;;;22.70;2.47;;;1.30;99.90;;;;;;5052598;28;20025;-68
2021/12/03 02:12:59;;;;;;;14.52;2.03;;;1.40;99.90;;;;;;5053594;28;20040;-68
2021/12/03 02:15:25;;;;;;;11.63;1.92;;;1.50;99.90;;;;;;5053108;28;20025;-68
2021/12/03 02:17:50;;;;;;;12.85;2.08;;;1.40;99.90;;;;;;5053080;28;20033;-68
2021/12/03 02:20:17;;;;;;;24.13;2.17;;;1.30;99.90;;;;;;5053014;28;20029;-68
2021/12/03 02:22:43;;;;;;;13.75;2.00;;;1.20;99.90;;;;;;5053304;28;20036;-68
2021/12/03 02:25:13;;;;;;;15.10;1.80;;;1.20;99.90;;;;;;5052312;28;20488;-68
2021/12/03 02:27:38;;;;;;;17.00;2.15;;;1.20;99.90;;;;;;5052881;28;20104;-68
2021/12/03 02:30:05;;;;;;;17.80;2.40;;;1.30;99.90;;;;;;5052947;28;20573;-68
2021/12/03 02:32:31;;;;;;;16.52;1.83;;;1.40;99.90;;;;;;5053205;28;20388;-68
2021/12/03 02:34:57;;;;;;;26.23;2.10;;;1.50;99.90;;;;;;5052422;28;20028;-68
2021/12/03 02:37:23;;;;;;;14.13;1.90;;;1.60;99.90;;;;;;5052701;28;20178;-69
2021/12/03 02:39:49;;;;;;;20.52;1.67;;;1.80;99.90;;;;;;5055388;28;20397;-68
2021/12/03 02:42:15;;;;;;;21.70;2.65;;;1.90;99.90;;;;;;5053904;28;20473;-68
2021/12/03 02:44:40;;;;;;;18.65;3.60;;;2.00;99.90;;;;;;5059300;28;20025;-68
2021/12/03 02:47:06;;;;;;;21.92;3.20;;;1.90;99.90;;;;;;5076359;28;20028;-68
2021/12/03 02:49:40;;;;;;;20.02;1.88;;;1.90;99.90;;;;;;5076752;28;20107;-68
2021/12/03 02:52:07;;;;;;;11.85;1.45;;;1.80;99.90;;;;;;5057672;28;20021;-68
2021/12/03 02:54:33;;;;;;;11.60;1.80;;;1.80;99.90;;;;;;5038642;28;20029;-68
2021/12/03 02:56:58;;;;;;;16.63;1.88;;;1.70;99.90;;;;;;5056689;28;20017;-68
2021/12/03 02:59:24;;;;;;;20.85;2.25;;;1.80;99.90;;;;;;5056614;28;20083;-68
2021/12/03 03:01:50;;;;;;;20.30;2.13;;;1.80;99.90;;;;;;5056244;28;20033;-68
2021/12/03 03:04:15;;;;;;;12.68;1.45;;;1.80;99.90;;;;;;5056552;28;20108;-68
2021/12/03 03:06:41;;;;;;;18.70;2.05;;;1.90;99.90;;;;;;5056521;28;20025;-68
2021/12/03 03:09:09;;;;;;;20.73;1.95;;;1.90;99.90;;;;;;5056398;28;20024;-68
2021/12/03 03:11:35;;;;;;;13.20;1.65;;;1.90;99.90;;;;;;5056296;28;20068;-69
2021/12/03 03:14:01;;;;;;;23.95;2.50;;;1.90;99.90;;;;;;5056655;28;20411;-68
2021/12/03 03:16:27;;;;;;;8.32;1.38;;;1.90;99.90;;;;;;5058753;28;20071;-68
2021/12/03 03:18:53;;;;;;;16.35;2.00;;;1.80;99.90;;;;;;5056532;28;20040;-68
2021/12/03 03:21:19;;;;;;;14.70;2.30;;;1.80;99.90;;;;;;5058399;28;20025;-69
2021/12/03 03:23:44;;;;;;;29.48;2.50;;;1.80;99.90;;;;;;5072707;28;20025;-68
2021/12/03 03:26:10;;;;;;;19.85;2.08;;;1.80;99.90;;;;;;5076133;28;20023;-68
2021/12/03 03:28:37;;;;;;;10.52;1.58;;;1.80;99.90;;;;;;5071551;28;20078;-68
2021/12/03 03:31:03;;;;;;;18.65;2.42;;;1.80;99.90;;;;;;5076775;28;20099;-68
2021/12/03 03:33:30;;;;;;;18.38;2.67;;;1.80;99.90;;;;;;5075364;28;20046;-68
2021/12/03 03:35:55;;;;;;;16.05;2.40;;;1.90;99.90;;;;;;5072223;28;20032;-68
2021/12/03 03:38:21;;;;;;;23.80;2.58;;;1.90;99.90;;;;;;5055925;28;20025;-68
2021/12/03 03:40:47;;;;;;;19.40;2.50;;;2.00;99.90;;;;;;5055773;28;20029;-68
2021/12/03 03:43:14;;;;;;;20.25;2.47;;;2.20;99.90;;;;;;5038152;28;20024;-68
2021/12/03 03:45:41;;;;;;;9.90;1.77;;;2.40;99.90;;;;;;5056085;28;20029;-67
2021/12/03 03:48:08;;;;;;;31.40;2.05;;;2.40;99.90;;;;;;5055432;28;20029;-68
2021/12/03 03:50:34;;;;;;;28.35;2.05;;;2.40;99.90;;;;;;5055642;28;20025;-67
2021/12/03 03:53:00;;;;;;;20.52;3.25;;;2.40;99.90;;;;;;5055609;28;20025;-68
2021/12/03 03:55:27;;;;;;;23.30;3.03;;;2.40;99.90;;;;;;5054866;28;20111;-68
2021/12/03 03:57:55;;;;;;;17.02;3.20;;;2.40;99.90;;;;;;5054954;28;20393;-68
2021/12/03 04:00:35;;;;;;;18.10;2.17;;;2.30;99.90;;;;;;5055300;28;20025;-68
2021/12/03 04:03:01;;;;;;;16.27;2.20;;;2.20;99.90;;;;;;5056065;28;20380;-68
2021/12/03 04:05:27;;;;;;;15.35;1.80;;;2.20;99.90;;;;;;5055442;28;20064;-68
2021/12/03 04:07:53;;;;;;;21.80;2.30;;;2.10;99.90;;;;;;5055310;28;20040;-68
2021/12/03 04:10:19;;;;;;;12.75;1.77;;;2.20;99.90;;;;;;5054824;28;20029;-68
2021/12/03 04:12:44;;;;;;;19.55;2.35;;;2.20;99.90;;;;;;5055280;28;20032;-68
2021/12/03 04:15:11;;;;;;;16.83;2.00;;;2.30;99.90;;;;;;5055233;28;20037;-68
2021/12/03 04:17:37;;;;;;;9.73;1.83;;;2.30;99.90;;;;;;5055709;28;20029;-68
2021/12/03 04:20:05;;;;;;;14.63;2.33;;;2.20;99.90;;;;;;5054834;28;20470;-68
2021/12/03 04:22:32;;;;;;;9.13;1.10;;;2.30;99.90;;;;;;5054582;28;20391;-68
2021/12/03 04:24:58;;;;;;;9.55;0.95;;;2.20;99.90;;;;;;5037787;28;20017;-68
2021/12/03 04:27:24;;;;;;;9.43;1.10;;;2.20;99.90;;;;;;5055072;28;20032;-68
2021/12/03 04:29:49;;;;;;;11.85;1.30;;;2.20;99.90;;;;;;5055153;28;20025;-68
2021/12/03 04:32:17;;;;;;;4.68;0.82;;;2.20;99.90;;;;;;5037043;28;20025;-68
2021/12/03 04:34:43;;;;;;;12.80;1.70;;;2.10;99.90;;;;;;5057371;28;20036;-68
2021/12/03 04:37:08;;;;;;;5.57;1.00;;;2.10;99.90;;;;;;5054481;28;20029;-68
2021/12/03 04:39:34;;;;;;;20.45;2.13;;;2.00;99.90;;;;;;5068526;28;20098;-68
2021/12/03 04:41:59;;;;;;;15.65;1.30;;;1.90;99.90;;;;;;5075000;28;20055;-68
2021/12/03 04:44:25;;;;;;;11.45;2.05;;;2.00;99.90;;;;;;5067975;28;20438;-68
2021/12/03 04:46:51;;;;;;;6.57;0.80;;;2.00;99.90;;;;;;5055364;28;20067;-68
2021/12/03 04:49:16;;;;;;;8.25;1.17;;;2.00;99.90;;;;;;5054851;28;20032;-67
2021/12/03 04:51:42;;;;;;;9.57;1.75;;;2.20;99.90;;;;;;5068064;28;20475;-68
2021/12/03 04:54:07;;;;;;;7.88;1.20;;;2.30;99.90;;;;;;5074427;28;20035;-68
2021/12/03 04:56:33;;;;;;;12.73;1.52;;;2.40;99.90;;;;;;5074427;28;20109;-67
2021/12/03 04:58:58;;;;;;;7.65;1.20;;;2.60;99.90;;;;;;5062453;28;20074;-68
2021/12/03 05:01:24;;;;;;;9.35;1.40;;;2.60;99.90;;;;;;5060096;28;20043;-68
2021/12/03 05:03:50;;;;;;;7.78;0.90;;;2.60;99.90;;;;;;5054038;28;20431;-68
2021/12/03 05:06:17;;;;;;;3.55;0.95;;;2.60;99.90;;;;;;5057217;28;20051;-68
2021/12/03 05:08:43;;;;;;;7.80;1.23;;;2.60;99.90;;;;;;5072032;28;20111;-68
2021/12/03 05:11:09;;;;;;;19.05;1.90;;;2.60;99.90;;;;;;5074334;28;20020;-67
2021/12/03 05:13:36;;;;;;;12.38;1.63;;;2.60;99.90;;;;;;5072671;28;20103;-69
2021/12/03 05:16:03;;;;;;;3.85;1.38;;;2.60;99.90;;;;;;5054372;28;20033;-67
2021/12/03 05:18:30;;;;;;;15.23;1.90;;;2.50;99.90;;;;;;5053059;28;20049;-68
2021/12/03 05:20:58;;;;;;;19.13;3.13;;;2.50;99.90;;;;;;5128708;23;20048;-71
2021/12/03 05:23:26;;;;;;;8.07;2.30;;;2.30;99.90;;;;;;5094156;28;20101;-71
2021/12/03 05:25:54;;;;;;;8.23;1.73;;;2.30;99.90;;;;;;5094416;28;20086;-70
2021/12/03 05:28:20;;;;;;;41.10;16.95;;;2.30;99.90;;;;;;5081652;28;20070;-71
2021/12/03 05:30:46;;;;;;;55.83;27.60;;;2.30;99.90;;;;;;5073923;28;20064;-70
2021/12/03 05:33:11;;;;;;;32.45;15.30;;;2.40;99.90;;;;;;5080577;28;20024;-71
2021/12/03 05:35:37;;;;;;;13.77;7.05;;;2.40;99.90;;;;;;5094262;28;20531;-70
2021/12/03 05:38:03;;;;;;;19.77;6.32;;;2.40;99.90;;;;;;5090353;28;20074;-71
2021/12/03 05:40:29;;;;;;;13.73;4.82;;;2.30;99.90;;;;;;5073456;28;20028;-70
2021/12/03 05:42:55;;;;;;;17.40;3.20;;;2.20;99.90;;;;;;5073588;28;20035;-71
2021/12/03 05:45:29;;;;;;;9.52;2.03;;;2.10;99.90;;;;;;5073523;28;20558;-70
2021/12/03 05:47:56;;;;;;;19.85;2.65;;;2.10;99.90;;;;;;5073043;28;20029;-71
2021/12/03 05:50:22;;;;;;;15.20;1.80;;;2.00;99.90;;;;;;5075658;28;20028;-71
2021/12/03 05:52:49;;;;;;;14.32;2.17;;;1.90;99.90;;;;;;5074002;28;20047;-70
2021/12/03 05:55:15;;;;;;;7.78;1.10;;;1.90;99.90;;;;;;5075652;28;20025;-71
2021/12/03 05:57:43;;;;;;;11.90;1.40;;;1.90;99.90;;;;;;5077725;28;20028;-70
2021/12/03 06:00:25;;;;;;;10.27;1.73;;;1.80;99.90;;;;;;5093704;28;20028;-70
2021/12/03 06:02:52;;;;;;;10.70;1.60;;;1.70;99.90;;;;;;5092083;28;20019;-71
2021/12/03 06:05:22;;;;;;;12.00;1.63;;;1.60;99.90;;;;;;5075649;28;20383;-71
2021/12/03 06:07:48;;;;;;;10.73;1.58;;;1.50;99.90;;;;;;5077705;28;20454;-71
2021/12/03 06:10:13;;;;;;;20.70;1.75;;;1.50;99.90;;;;;;5087100;28;20055;-71
2021/12/03 06:12:39;;;;;;;6.70;1.27;;;1.50;99.90;;;;;;5093459;28;20043;-71
2021/12/03 06:15:05;;;;;;;12.30;1.30;;;1.50;99.90;;;;;;5087505;28;20050;-71
2021/12/03 06:17:31;;;;;;;14.57;1.77;;;1.70;99.90;;;;;;5072907;28;20079;-70
2021/12/03 06:19:57;;;;;;;13.50;1.75;;;1.80;99.90;;;;;;5073316;28;20487;-70
2021/12/03 06:22:22;;;;;;;12.00;1.48;;;1.70;99.90;;;;;;5072973;28;20105;-70
2021/12/03 06:24:48;;;;;;;17.50;1.85;;;1.60;99.90;;;;;;5073064;28;20099;-71
2021/12/03 06:27:14;;;;;;;11.88;1.20;;;1.60;99.90;;;;;;5072596;28;20514;-71
2021/12/03 06:29:39;;;;;;;17.10;2.75;;;1.60;99.90;;;;;;5073329;28;20079;-70
2021/12/03 06:32:09;;;;;;;9.27;1.10;;;1.60;99.90;;;;;;5074270;28;20040;-71
2021/12/03 06:34:35;;;;;;;24.23;1.55;;;1.60;99.90;;;;;;5091321;28;20495;-71
2021/12/03 06:37:00;;;;;;;12.38;1.50;;;1.50;99.90;;;;;;5093459;28;20051;-71
2021/12/03 06:39:26;;;;;;;24.58;1.85;;;1.60;99.90;;;;;;5092290;28;20115;-71
2021/12/03 06:41:51;;;;;;;18.83;1.38;;;1.60;99.90;;;;;;5072884;28;20017;-71
2021/12/03 06:44:17;;;;;;;10.82;1.30;;;1.60;99.90;;;;;;5072856;28;20024;-71
2021/12/03 06:46:43;;;;;;;4.22;1.17;;;1.60;99.90;;;;;;5083950;28;20020;-71
2021/12/03 06:49:09;;;;;;;18.77;1.83;;;1.70;99.90;;;;;;5092522;28;20077;-71
2021/12/03 06:51:40;;;;;;;19.77;2.47;;;2.10;99.90;;;;;;5091969;28;20016;-70
2021/12/03 06:54:08;;;;;;;18.40;2.03;;;2.50;99.90;;;;;;5093064;28;20035;-70
2021/12/03 06:56:51;;;;;;;18.92;1.55;;;2.60;99.90;;;;;;5075158;28;20020;-71
2021/12/03 06:59:18;;;;;;;19.63;2.10;;;2.60;99.90;;;;;;5073268;28;20473;-71
2021/12/03 07:01:45;;;;;;;9.55;2.13;;;2.60;99.90;;;;;;5081971;28;20296;-70
2021/12/03 07:04:11;;;;;;;16.67;1.80;;;2.60;99.90;;;;;;5093212;28;20436;-70
2021/12/03 07:06:37;;;;;;;15.20;1.63;;;2.50;99.90;;;;;;5092910;28;20096;-70
2021/12/03 07:09:04;;;;;;;17.50;1.75;;;2.40;99.90;;;;;;5092928;28;20383;-70
2021/12/03 07:11:29;;;;;;;21.23;2.63;;;2.40;99.90;;;;;;5076309;28;20028;-71
2021/12/03 07:13:55;;;;;;;6.75;2.47;;;2.20;99.90;;;;;;5072086;28;20120;-71
2021/12/03 07:16:21;;;;;;;16.42;1.85;;;2.20;99.90;;;;;;5072774;28;20056;-70
2021/12/03 07:18:47;;;;;;;14.80;1.65;;;2.10;99.90;;;;;;5072622;28;20082;-70
2021/12/03 07:21:12;;;;;;;12.32;1.85;;;2.10;99.90;;;;;;5085168;28;20028;-71
2021/12/03 07:23:38;;;;;;;8.15;1.45;;;2.10;99.90;;;;;;5085910;28;20029;-71
2021/12/03 07:26:04;;;;;;;16.45;1.40;;;2.10;99.90;;;;;;5092718;28;20019;-71
2021/12/03 07:28:30;;;;;;;23.65;1.73;;;2.00;99.90;;;;;;5092979;28;20020;-70
2021/12/03 07:30:57;;;;;;;15.18;1.55;;;2.00;99.90;;;;;;5087126;28;20036;-71
2021/12/03 07:33:23;;;;;;;16.52;1.83;;;2.00;99.90;;;;;;5075139;28;20119;-71
2021/12/03 07:35:48;;;;;;;11.77;3.33;;;2.10;99.90;;;;;;5078584;28;20103;-71
2021/12/03 07:38:17;;;;;;;14.10;1.75;;;2.20;99.90;;;;;;5075515;28;20476;-71
2021/12/03 07:40:48;;;;;;;20.23;2.53;;;2.40;99.90;;;;;;5087567;28;20020;-71
2021/12/03 07:43:16;;;;;;;18.23;2.15;;;2.50;99.90;;;;;;5095691;28;20024;-71
2021/12/03 07:45:45;;;;;;;25.80;2.10;;;2.60;99.90;;;;;;5091082;28;20028;-71
2021/12/03 07:48:11;;;;;;;14.45;1.70;;;2.80;99.90;;;;;;5092446;28;20495;-71
2021/12/03 07:50:39;;;;;;;16.85;2.53;;;3.00;99.90;;;;;;5087023;28;20033;-71
2021/12/03 07:53:06;;;;;;;21.25;2.53;;;3.10;99.90;;;;;;5075698;28;20108;-71
2021/12/03 07:55:32;;;;;;;15.18;2.13;;;3.20;99.90;;;;;;5078962;28;20020;-71
2021/12/03 07:57:58;;;;;;;9.63;1.13;;;3.20;99.90;;;;;;5095348;28;20056;-71
2021/12/03 08:00:24;;;;;;;5.82;1.10;;;3.30;99.90;;;;;;5096010;28;20121;-71
2021/12/03 08:02:50;;;;;;;13.55;1.85;;;3.30;99.90;;;;;;5093564;28;20070;-71
2021/12/03 08:05:16;;;;;;;13.98;1.48;;;3.30;99.90;;;;;;5096052;28;20020;-71
2021/12/03 08:07:45;;;;;;;15.68;1.55;;;3.30;99.90;;;;;;5090739;28;20039;-71
2021/12/03 08:10:12;;;;;;;3.50;1.08;;;3.40;99.90;;;;;;5095842;28;20129;-71
2021/12/03 08:12:41;;;;;;;7.35;1.90;;;3.30;99.90;;;;;;5095600;28;20112;-71
2021/12/03 08:15:08;;;;;;;9.70;1.60;;;3.40;99.90;;;;;;5095572;28;20043;-71
2021/12/03 08:17:34;;;;;;;7.63;1.17;;;3.60;99.90;;;;;;5080162;28;20059;-71
2021/12/03 08:20:00;;;;;;;6.25;1.02;;;3.80;99.90;;;;;;5074471;28;20056;-70
2021/12/03 08:22:25;;;;;;;9.48;1.25;;;4.00;99.90;;;;;;5085913;28;20118;-70
2021/12/03 08:24:51;;;;;;;14.65;1.13;;;4.00;99.90;;;;;;5095654;28;20016;-71
2021/12/03 08:27:16;;;;;;;15.63;2.63;;;4.00;99.90;;;;;;5078699;28;20028;-71
2021/12/03 08:29:42;;;;;;;9.43;2.25;;;4.00;99.90;;;;;;5074500;28;20024;-71
2021/12/03 08:32:10;;;;;;;14.88;2.67;;;3.90;99.90;;;;;;5074913;28;20028;-71
2021/12/03 08:34:36;;;;;;;5.65;1.27;;;3.90;99.90;;;;;;5074959;28;20028;-71
2021/12/03 08:37:02;;;;;;;4.93;1.30;;;3.90;99.90;;;;;;5074384;28;20021;-71
2021/12/03 08:39:29;;;;;;;10.75;1.58;;;3.80;99.90;;;;;;5074745;28;20028;-71
2021/12/03 08:41:55;;;;;;;14.13;1.45;;;3.90;99.90;;;;;;5074495;28;20028;-71
2021/12/03 08:44:21;;;;;;;14.93;2.33;;;3.80;99.90;;;;;;5074721;28;20025;-71
2021/12/03 08:46:51;;;;;;;9.75;1.80;;;3.80;99.90;;;;;;5076400;28;20031;-71
2021/12/03 08:49:38;;;;;;;9.75;1.40;;;3.80;99.90;;;;;;5057274;28;20107;-71
2021/12/03 08:57:19;;;;;;;7.05;0.93;;;3.70;99.90;;;;;;5077458;28;20459;-71
2021/12/03 08:59:44;;;;;;;6.05;1.30;;;3.60;99.90;;;;;;5086024;28;20024;-70
2021/12/03 09:02:10;;;;;;;5.15;0.98;;;3.60;99.90;;;;;;5072972;28;20032;-70
2021/12/03 09:04:36;;;;;;;6.13;1.00;;;3.50;99.90;;;;;;5074586;28;20028;-70
2021/12/03 09:07:03;;;;;;;4.57;1.20;;;3.40;99.90;;;;;;5081337;28;20045;-70
2021/12/03 09:09:30;;;;;;;8.88;1.50;;;3.30;99.90;;;;;;5090545;28;20096;-70
2021/12/03 09:11:56;;;;;;;5.97;1.05;;;3.20;99.90;;;;;;5083940;28;20021;-70
2021/12/03 09:19:44;;;;;;;14.85;2.53;;;3.10;99.90;;;;;;5023426;28;20072;-71
2021/12/03 09:22:14;;;;;;;4.80;0.93;;;3.10;99.90;;;;;;5055877;28;20502;-70
2021/12/03 09:24:40;;;;;;;10.32;1.50;;;3.10;99.90;;;;;;5074017;28;20032;-71
2021/12/03 09:27:05;;;;;;;11.25;1.38;;;3.10;99.90;;;;;;5074491;28;20070;-70
2021/12/03 09:29:33;;;;;;;8.30;1.23;;;3.20;99.90;;;;;;5073356;28;20050;-71
2021/12/03 09:31:59;;;;;;;10.70;1.45;;;3.20;99.90;;;;;;5073790;28;20544;-71
2021/12/03 09:34:29;;;;;;;5.10;1.00;;;3.20;99.90;;;;;;5055870;28;20024;-71
2021/12/03 09:36:56;;;;;;;10.98;1.17;;;3.20;99.90;;;;;;5073873;28;20081;-71
2021/12/03 09:39:24;;;;;;;8.95;1.15;;;3.20;99.90;;;;;;5073641;28;20096;-71
2021/12/03 09:41:55;;;;;;;10.82;1.60;;;3.30;99.90;;;;;;5073535;28;20027;-70
2021/12/03 09:44:21;;;;;;;7.68;1.02;;;3.30;99.90;;;;;;5073585;28;20526;-70
2021/12/03 09:46:49;;;;;;;16.13;2.33;;;3.40;99.90;;;;;;5073052;28;20016;-71
2021/12/03 09:49:26;;;;;;;6.68;1.30;;;3.40;99.90;;;;;;5073492;28;20480;-71
2021/12/03 09:52:10;;;;;;;8.57;0.82;;;3.40;99.90;;;;;;5072994;28;20089;-71
2021/12/03 09:54:40;;;;;;;19.60;2.20;;;3.40;99.90;;;;;;5073478;28;20364;-71
2021/12/03 09:57:13;;;;;;;12.52;1.48;;;3.30;99.90;;;;;;5073693;28;20047;-71
2021/12/03 10:02:30;;;;;;;13.07;1.35;;;3.20;99.90;;;;;;5073082;28;20271;-71
2021/12/03 10:09:06;;;;;;;15.18;1.98;;;3.30;99.90;;;;;;5073656;28;20023;-70
2021/12/03 10:13:20;;;;;;;5.68;1.17;;;3.30;99.90;;;;;;5073584;28;20021;-71
2021/12/03 10:19:00;;;;;;;10.48;1.38;;;3.20;99.90;;;;;;5072767;28;20109;-71
2021/12/03 10:24:41;;;;;;;13.38;3.83;;;3.30;99.90;;;;;;5073193;28;20065;-71
2021/12/03 10:30:00;;;;;;;37.73;2.83;;;3.30;99.90;;;;;;5073129;28;20028;-71
2021/12/03 10:32:39;;;;;;;14.40;2.65;;;3.40;99.90;;;;;;5073342;28;20267;-71
2021/12/03 10:43:18;;;;;;;13.73;1.58;;;3.70;99.90;;;;;;5072737;28;20028;-71
2021/12/03 10:46:23;;;;;;;13.88;1.77;;;3.80;99.90;;;;;;5072955;28;20017;-71
2021/12/03 10:54:03;;;;;;;12.88;1.27;;;3.80;99.90;;;;;;5073474;28;19911;-71
2021/12/03 10:59:40;;;;;;;9.43;1.50;;;3.70;99.90;;;;;;5072308;28;20021;-71
2021/12/03 11:02:46;;;;;;;8.60;2.45;;;3.70;99.90;;;;;;5072442;28;20036;-70
2021/12/03 11:05:23;;;;;;;17.30;4.00;;;3.70;99.90;;;;;;5074549;28;20028;-71
2021/12/03 11:19:48;;;;;;;37.10;9.93;;;3.90;99.90;;;;;;5050423;28;20166;-71
2021/12/03 11:47:32;;;;;;;22.30;3.42;;;2.90;99.90;;;;;;5064836;28;20502;-70
2021/12/03 12:01:57;;;;;;;35.03;4.57;;;3.10;99.90;;;;;;5076018;28;20024;-70
2021/12/03 12:24:15;;;;;;;39.10;11.90;;;3.70;99.90;;;;;;5075499;28;20389;-71
2021/12/03 12:27:24;;;;;;;39.17;12.88;;;3.70;99.90;;;;;;5074959;28;20055;-70
2021/12/03 13:21:09;;;;;;;69.00;26.65;;;3.50;99.90;;;;;;5073783;28;20047;-70
2021/12/03 13:57:59;;;;;;;96.63;32.03;;;3.30;99.90;;;;;;5073983;28;20039;-71
2021/12/03 14:51:28;;;;;;;74.18;24.70;;;2.60;99.90;;;;;;5097731;28;20076;-71
2021/12/03 15:22:00;;;;;;;45.65;22.33;;;2.60;99.90;;;;;;5096409;28;20376;-70
2021/12/03 15:27:29;;;;;;;;;;;2.60;99.90;;;;;;5096968;28;20058;-71
2021/12/03 16:05:20;;;;;;;34.92;16.85;;;3.10;99.90;;;;;;5096358;28;20025;-71
2021/12/03 16:08:02;;;;;;;30.20;16.83;;;3.10;99.90;;;;;;5095810;28;20509;-71
2021/12/03 16:27:02;;;;;;;33.20;18.52;;;3.50;99.90;;;;;;5095968;28;20070;-71
2021/12/03 16:43:45;;;;;;;45.30;24.42;;;4.10;99.90;;;;;;5095101;28;20063;-71
2021/12/03 16:49:35;;;;;;;53.45;24.27;;;4.10;99.90;;;;;;5094975;28;20432;-71
2021/12/03 16:54:11;;;;;;;59.70;23.15;;;4.30;99.90;;;;;;5095178;28;20020;-71
2021/12/03 16:56:43;;;;;;;58.95;22.52;;;4.30;99.90;;;;;;5095118;28;20069;-71
2021/12/03 16:59:10;;;;;;;50.72;19.67;;;4.30;99.90;;;;;;5095055;28;20028;-71
2021/12/03 17:01:49;;;;;;;59.45;22.52;;;4.40;99.90;;;;;;5089584;28;20069;-71
2021/12/03 17:12:26;;;;;;;40.15;20.27;;;4.50;99.90;;;;;;5081051;28;20116;-74
2021/12/03 17:49:53;;;;;;;53.03;18.10;;;4.70;99.90;;;;;;5082807;28;20537;-70
2021/12/03 17:57:32;;;;;;;45.58;20.20;;;4.80;99.90;;;;;;5075124;28;20025;-69
2021/12/03 17:59:59;;;;;;;48.42;20.42;;;4.80;99.90;;;;;;5083276;28;20027;-69
2021/12/03 18:02:38;;;;;;;55.65;21.20;;;4.80;99.90;;;;;;5075563;28;20028;-70
2021/12/03 18:45:22;;;;;;;60.90;12.27;;;5.40;99.90;;;;;;5084175;28;20035;-69
2021/12/03 18:48:09;;;;;;;78.75;15.15;;;5.50;99.90;;;;;;5079599;28;20109;-69
2021/12/03 18:56:06;;;;;;;75.10;15.23;;;5.60;99.90;;;;;;5081019;28;20043;-71
2021/12/03 18:58:32;;;;;;;68.35;17.02;;;5.60;99.90;;;;;;5072739;28;20480;-76
2021/12/03 19:00:58;;;;;;;67.57;14.20;;;5.60;99.90;;;;;;5072988;28;20020;-77
2021/12/03 19:08:50;;;;;;;50.72;13.63;;;5.50;99.90;;;;;;5086066;28;20036;-73
2021/12/03 19:13:53;;;;;;;75.53;14.35;;;5.60;99.90;;;;;;5083017;28;20488;-75
2021/12/03 19:16:23;;;;;;;66.20;14.27;;;5.60;99.90;;;;;;5083899;28;20025;-75
2021/12/03 19:18:51;;;;;;;87.53;15.68;;;5.60;99.90;;;;;;5087770;28;20024;-75
2021/12/03 19:21:22;;;;;;;75.35;13.80;;;5.60;99.90;;;;;;5074855;28;20032;-74
2021/12/03 19:23:59;;;;;;;65.50;13.55;;;5.60;99.90;;;;;;5083285;28;20025;-74
2021/12/03 19:26:26;;;;;;;61.25;12.48;;;5.60;99.90;;;;;;5089287;28;20028;-74
2021/12/03 19:28:53;;;;;;;68.18;11.75;;;5.70;99.90;;;;;;5086267;28;20027;-75
2021/12/03 19:31:22;;;;;;;72.32;10.43;;;5.70;99.90;;;;;;5077287;28;20028;-74
2021/12/03 19:33:47;;;;;;;63.22;10.00;;;5.80;99.90;;;;;;5090365;28;20064;-75
2021/12/03 19:36:20;;;;;;;69.93;12.40;;;5.70;99.90;;;;;;5087899;28;20075;-74
2021/12/03 19:38:47;;;;;;;70.53;11.33;;;5.70;99.90;;;;;;5088937;28;20048;-76
2021/12/03 19:41:21;;;;;;;55.67;10.38;;;5.70;99.90;;;;;;5092489;28;20316;-76
2021/12/03 19:43:52;;;;;;;72.78;10.13;;;5.70;99.90;;;;;;5088034;28;20020;-74
2021/12/03 19:46:20;;;;;;;52.33;11.52;;;5.60;99.90;;;;;;5076860;28;20020;-73
2021/12/03 19:48:57;;;;;;;76.85;10.70;;;5.60;99.90;;;;;;5069620;28;20021;-72
2021/12/03 19:51:25;;;;;;;55.47;10.55;;;5.60;99.90;;;;;;5072135;28;20074;-70
2021/12/03 19:53:57;;;;;;;57.92;10.20;;;5.60;99.90;;;;;;5084117;28;20039;-73
2021/12/03 19:56:24;;;;;;;53.33;9.13;;;5.60;99.90;;;;;;5078067;28;20024;-74
2021/12/03 19:58:50;;;;;;;62.10;10.15;;;5.70;99.90;;;;;;5085511;28;20116;-73
2021/12/03 20:01:15;;;;;;;73.68;9.75;;;5.70;99.90;;;;;;5086649;28;20395;-73
2021/12/03 20:03:41;;;;;;;66.07;10.27;;;5.70;99.90;;;;;;5088790;28;20032;-73
2021/12/03 20:06:07;;;;;;;50.10;8.05;;;5.70;99.90;;;;;;5087864;28;20028;-73
2021/12/03 20:08:34;;;;;;;64.20;7.35;;;5.70;99.90;;;;;;5090032;28;20016;-72
2021/12/03 20:11:04;;;;;;;39.78;8.07;;;5.70;99.90;;;;;;5089783;28;20034;-73
2021/12/03 20:13:30;;;;;;;47.50;6.72;;;5.70;99.90;;;;;;5077497;28;20028;-73
2021/12/03 20:18:33;;;;;;;72.13;9.05;;;5.80;99.90;;;;;;5090493;28;20024;-74
2021/12/03 20:20:59;;;;;;;51.47;7.90;;;5.80;99.90;;;;;;5088895;28;20028;-74
2021/12/03 20:28:49;;;;;;;42.03;6.18;;;5.60;99.90;;;;;;5088912;28;20127;-75
2021/12/03 20:31:17;;;;;;;46.95;6.20;;;5.60;99.90;;;;;;5077776;28;20032;-74
2021/12/03 20:38:37;;;;;;;49.58;6.75;;;5.60;99.90;;;;;;5091795;28;20425;-74